TAF and METAR

Decoding for American and Canadian METARs and TAFs is not fully implemented.

Could not understand the following METAR

PASY 171916Z 17033G38KT 3SM -RASN BR SCT010 BKN016 02/01 A2967 RMK SNB16RAB16 SLP051

TAF for Eareckson Air Station

TAF AMD PASY 171900Z 1719/1820 16035G45KT 8000 -SN BR FEW010 SCT016 520003 QNH2962INS TEMPO 1719/1721 BKN018 620188 BECMG 1720/1721 17040G50KT 3200 -SN BR BKN018 620189 520003 QNH2950INS TEMPO 1806/1810 0800 BLSN BKN009 620099 530005 BECMG 1816/1817 15035G45KT 9000 BR SCT020 BKN040 620402 520003 QNH2945INS TX05/1802Z TNM03/1814Z
Report created 17. jan 20:00

between 17. jan 20:00 - 18. jan 21:00

wind 35 knots from SSE (160°) with gusts up to 45 knots visibility 8000 meters light snow mist some clouds (~25% cover) at 1000 feet scattered clouds (~50% cover) at 1600 feet
Eareckson Air Station in United States of America at 31m

Latest 5 airports